Time;durP1;ratioP1;P1;durP2;ratioP2;P2;SDS_P1;SDS_P2;PMS_P1;PMS_P2;Temp;Humidity;BMP_temperature;BMP_pressure;BME280_temperature;BME280_humidity;BME280_pressure;Samples;Min_cycle;Max_cycle;Signal;HPM_P1;HPM_P2
2021/07/14 00:02:17;;;;;;;1.00;1.00;;;;;;;22.49;100.00;96985.06;4984170;28;20333;-66
2021/07/14 00:04:43;;;;;;;1.20;1.10;;;;;;;22.17;100.00;96927.31;4982854;28;20234;-66
2021/07/14 00:07:10;;;;;;;1.47;1.20;;;;;;;22.51;100.00;96978.31;4976025;28;20243;-64
2021/07/14 00:09:36;;;;;;;1.23;1.20;;;;;;;22.52;100.00;96982.59;4973317;28;20639;-66
2021/07/14 00:12:06;;;;;;;1.10;1.10;;;;;;;22.45;100.00;96962.81;4981848;28;20653;-66
2021/07/14 00:22:28;;;;;;;1.00;1.00;;;;;;;22.56;100.00;96973.25;4979766;28;20242;-66
2021/07/14 00:24:55;;;;;;;1.20;1.10;;;;;;;22.55;100.00;96985.19;4974228;28;20235;-66
2021/07/14 00:27:23;;;;;;;1.00;1.00;;;;;;;22.56;100.00;96968.13;4976336;28;20306;-66
2021/07/14 00:29:53;;;;;;;1.17;1.07;;;;;;;22.57;100.00;96959.59;4972878;28;20238;-66
2021/07/14 00:32:20;;;;;;;1.00;1.00;;;;;;;22.57;100.00;96967.28;4978825;28;20711;-66
2021/07/14 00:34:46;;;;;;;1.07;1.07;;;;;;;22.19;100.00;96891.50;4974447;28;20207;-66
2021/07/14 00:37:13;;;;;;;1.00;1.00;;;;;;;22.47;100.00;96944.91;4972394;28;20262;-67
2021/07/14 00:39:41;;;;;;;0.97;0.97;;;;;;;22.40;100.00;96933.69;4972708;28;20726;-65
2021/07/14 00:42:09;;;;;;;2.23;1.10;;;;;;;22.58;100.00;96959.63;4971491;28;20583;-66
2021/07/14 00:44:35;;;;;;;1.10;1.10;;;;;;;22.59;100.00;96968.19;4977860;28;20254;-66
2021/07/14 00:47:02;;;;;;;2.13;1.10;;;;;;;22.59;100.00;96976.72;4981173;28;20254;-66
2021/07/14 00:49:29;;;;;;;1.10;1.10;;;;;;;22.60;100.00;96992.97;4958685;28;20311;-66
2021/07/14 00:51:56;;;;;;;1.10;1.10;;;;;;;22.44;100.00;96961.06;4970202;28;20242;-66
2021/07/14 00:54:22;;;;;;;1.07;1.07;;;;;;;22.32;100.00;96919.06;4973586;28;20655;-66
2021/07/14 00:56:49;;;;;;;1.57;1.10;;;;;;;22.60;100.00;96957.97;4974430;28;20281;-66
2021/07/14 00:59:17;;;;;;;2.03;1.10;;;;;;;22.17;100.00;96870.16;4974221;28;20238;-63
2021/07/14 01:01:43;;;;;;;1.30;1.20;;;;;;;22.56;100.00;96932.28;4964100;28;20294;-66
2021/07/14 01:04:29;;;;;;;1.00;1.00;;;;;;;22.62;100.00;96958.00;4949341;28;20214;-62
2021/07/14 01:07:01;;;;;;;1.10;1.00;;;;;;;22.62;100.00;96970.81;4976663;28;20302;-66
2021/07/14 01:09:28;;;;;;;1.27;1.17;;;;;;;22.62;100.00;96984.44;4977732;28;20274;-66
2021/07/14 01:11:56;;;;;;;0.93;0.93;;;;;;;22.62;100.00;96998.97;4974028;28;20207;-66
2021/07/14 01:14:27;;;;;;;1.27;1.17;;;;;;;22.62;100.00;96991.28;4970931;28;20243;-66
2021/07/14 01:16:57;;;;;;;0.83;0.83;;;;;;;22.62;100.00;96981.88;4971072;28;20261;-66
2021/07/14 01:19:48;;;;;;;1.10;1.00;;;;;;;22.62;100.00;96993.84;4974339;28;20282;-66
2021/07/14 01:22:20;;;;;;;1.23;1.13;;;;;;;22.64;100.00;96994.72;4973762;28;20716;-64
2021/07/14 01:25:06;;;;;;;0.93;0.93;;;;;;;22.14;100.00;96911.91;4975479;28;20245;-64
2021/07/14 01:27:35;;;;;;;1.53;1.20;;;;;;;22.63;100.00;97004.13;4975398;28;20298;-66
2021/07/14 01:30:05;;;;;;;1.03;1.00;;;;;;;21.65;100.00;96848.75;4969915;28;20313;-66
2021/07/14 01:32:33;;;;;;;0.97;0.97;;;;;;;22.63;100.00;97023.75;4976883;28;20199;-66
2021/07/14 01:35:06;;;;;;;1.00;1.00;;;;;;;22.64;100.00;97020.34;4968199;28;20235;-66
2021/07/14 01:37:33;;;;;;;1.60;1.00;;;;;;;22.57;100.00;97018.50;4962946;28;20290;-66
2021/07/14 01:40:00;;;;;;;1.20;1.10;;;;;;;22.51;100.00;97016.72;4954482;28;20314;-67
2021/07/14 01:42:28;;;;;;;1.20;1.10;;;;;;;22.64;100.00;97035.69;4962625;28;20235;-65
2021/07/14 01:44:55;;;;;;;1.27;1.03;;;;;;;22.60;100.00;97022.00;4969963;28;20744;-67
2021/07/14 01:47:22;;;;;;;1.13;1.10;;;;;;;22.64;100.00;97028.00;4972939;28;20663;-66
2021/07/14 01:49:49;;;;;;;1.17;1.10;;;;;;;22.16;100.00;96937.53;4999767;23;20227;-69
2021/07/14 01:52:18;;;;;;;0.90;0.90;;;;;;;22.24;100.00;96931.72;4964688;28;20203;-69
2021/07/14 01:54:44;;;;;;;1.00;1.00;;;;;;;21.79;100.00;96856.69;4979033;28;20230;-68
2021/07/14 01:57:11;;;;;;;1.20;1.03;;;;;;;22.64;100.00;97003.28;4981991;28;20688;-68
2021/07/14 01:59:38;;;;;;;1.30;1.20;;;;;;;21.90;100.00;96878.22;4984702;28;20257;-72
2021/07/14 02:02:06;;;;;;;1.00;1.00;;;;;;;21.82;100.00;96855.91;4965896;28;20679;-69
2021/07/14 02:04:33;;;;;;;1.20;1.10;;;;;;;22.40;100.00;96955.88;4963730;28;20203;-70
2021/07/14 02:07:06;;;;;;;1.00;1.00;;;;;;;22.67;100.00;96992.22;4975987;28;20222;-68
2021/07/14 02:09:37;;;;;;;1.30;1.20;;;;;;;22.65;100.00;96978.53;4983958;28;20231;-69
2021/07/14 02:12:06;;;;;;;1.10;1.10;;;;;;;22.56;100.00;96950.22;4974310;28;20297;-69
2021/07/14 02:14:36;;;;;;;1.20;1.10;;;;;;;22.60;100.00;96955.41;4983271;28;20235;-71
2021/07/14 02:17:12;;;;;;;1.20;1.10;;;;;;;22.65;100.00;96946.06;4968505;28;20239;-71
2021/07/14 02:19:39;;;;;;;5.17;1.10;;;;;;;22.65;100.00;96928.16;4975068;28;20250;-68
2021/07/14 02:22:05;;;;;;;1.00;1.00;;;;;;;22.33;100.00;96867.88;4973765;28;20234;-67
2021/07/14 02:24:34;;;;;;;0.90;0.90;;;;;;;22.66;100.00;96931.59;4971141;28;20310;-68
2021/07/14 02:27:07;;;;;;;1.00;1.00;;;;;;;22.65;100.00;96952.91;4979477;28;20209;-71
2021/07/14 02:29:35;;;;;;;1.00;1.00;;;;;;;22.40;100.00;96926.00;4979305;28;20253;-73
2021/07/14 02:32:02;;;;;;;1.00;1.00;;;;;;;22.13;100.00;96876.06;4977432;28;20334;-68
2021/07/14 02:34:29;;;;;;;1.10;1.00;;;;;;;22.66;100.00;96959.75;4973073;28;20203;-67
2021/07/14 02:36:56;;;;;;;1.00;1.00;;;;;;;22.65;100.00;96951.19;4979074;28;20732;-69
2021/07/14 02:39:22;;;;;;;0.90;0.90;;;;;;;22.50;100.00;96916.78;4961273;28;20230;-71
2021/07/14 02:41:54;;;;;;;1.00;1.00;;;;;;;22.22;100.00;96868.53;4978428;28;20238;-67
2021/07/14 02:44:20;;;;;;;2.40;0.97;;;;;;;22.54;100.00;96928.84;4978438;28;20238;-66
2021/07/14 02:46:48;;;;;;;1.10;1.10;;;;;;;22.65;100.00;96943.50;4975507;28;20298;-64
2021/07/14 02:49:19;;;;;;;1.00;1.00;;;;;;;22.24;100.00;96888.22;4983275;28;20223;-65
2021/07/14 02:51:46;;;;;;;1.17;1.13;;;;;;;22.45;100.00;96910.72;4980202;28;20203;-65
2021/07/14 02:54:19;;;;;;;1.00;1.00;;;;;;;22.65;100.00;96946.06;4963942;28;20211;-66
2021/07/14 02:56:47;;;;;;;2.40;1.00;;;;;;;22.53;100.00;96930.53;4979885;28;20227;-66
2021/07/14 02:59:14;;;;;;;1.27;1.00;;;;;;;22.67;100.00;96953.78;4981160;28;20293;-65
2021/07/14 03:01:42;;;;;;;1.00;1.00;;;;;;;22.68;100.00;96961.50;4977740;28;20231;-65
2021/07/14 03:04:09;;;;;;;1.00;1.00;;;;;;;22.63;100.00;96946.91;4984763;28;20202;-65
2021/07/14 03:06:38;;;;;;;1.00;1.00;;;;;;;22.27;100.00;96897.63;4970922;28;20692;-65
2021/07/14 03:09:05;;;;;;;0.90;0.90;;;;;;;22.67;100.00;96971.72;4984854;28;20250;-66
2021/07/14 03:11:38;;;;;;;1.47;1.10;;;;;;;22.59;100.00;96957.94;4988407;28;20227;-64
2021/07/14 03:14:05;;;;;;;1.80;1.00;;;;;;;22.50;100.00;96940.72;4983784;28;20209;-65
2021/07/14 03:16:32;;;;;;;1.00;1.00;;;;;;;22.68;100.00;96969.19;4974530;28;20207;-65
2021/07/14 03:18:59;;;;;;;1.10;1.10;;;;;;;22.67;100.00;96956.34;4968453;28;20249;-65
2021/07/14 03:21:28;;;;;;;1.43;1.30;;;;;;;22.69;100.00;96957.25;4980819;28;20652;-65
2021/07/14 03:23:55;;;;;;;1.27;1.17;;;;;;;22.67;100.00;96944.41;4982509;28;20207;-65
2021/07/14 03:26:22;;;;;;;1.00;1.00;;;;;;;22.67;100.00;96944.41;4976443;28;20314;-65
2021/07/14 03:28:48;;;;;;;1.10;1.10;;;;;;;22.56;100.00;96919.47;4986972;28;20222;-65
2021/07/14 03:31:15;;;;;;;1.70;1.07;;;;;;;22.63;100.00;96934.97;4978422;28;20262;-65
2021/07/14 03:33:41;;;;;;;1.13;1.10;;;;;;;22.70;100.00;96946.16;4981870;28;20207;-65
2021/07/14 03:36:08;;;;;;;1.00;1.00;;;;;;;22.71;100.00;96955.56;4980325;28;20694;-65
2021/07/14 03:38:35;;;;;;;1.10;1.10;;;;;;;22.71;100.00;96971.78;4971384;28;20199;-65
2021/07/14 03:41:02;;;;;;;1.07;1.00;;;;;;;22.70;100.00;96962.41;4985160;28;20814;-65
2021/07/14 03:43:29;;;;;;;1.00;1.00;;;;;;;22.52;100.00;96935.63;4966746;28;20731;-65
2021/07/14 03:45:55;;;;;;;1.00;1.00;;;;;;;22.60;100.00;96957.09;4981645;28;20301;-64
2021/07/14 03:48:22;;;;;;;1.00;1.00;;;;;;;22.71;100.00;96981.19;4980337;28;20259;-65
2021/07/14 03:50:50;;;;;;;2.50;1.00;;;;;;;22.41;100.00;96930.28;4980091;28;20322;-65
2021/07/14 03:53:17;;;;;;;1.20;1.10;;;;;;;22.72;100.00;96993.16;4981272;28;20211;-65
2021/07/14 03:55:45;;;;;;;1.10;1.07;;;;;;;22.72;100.00;97001.72;4980143;28;20242;-65
2021/07/14 03:58:11;;;;;;;1.17;1.07;;;;;;;22.46;100.00;96963.66;4971281;28;20257;-65
2021/07/14 04:00:38;;;;;;;0.90;0.90;;;;;;;22.49;100.00;96990.19;4980373;28;20680;-65
2021/07/14 04:03:06;;;;;;;1.00;1.00;;;;;;;22.60;100.00;96980.16;4982602;28;20235;-65
2021/07/14 04:05:33;;;;;;;0.90;0.90;;;;;;;22.46;100.00;96956.84;4984158;28;20242;-65
2021/07/14 04:07:59;;;;;;;1.07;1.07;;;;;;;22.72;100.00;96991.47;4969080;28;20319;-66
2021/07/14 04:10:26;;;;;;;1.87;1.17;;;;;;;22.73;100.00;96977.81;4970112;28;20318;-65
2021/07/14 04:12:53;;;;;;;1.20;1.10;;;;;;;22.74;100.00;96976.13;4982169;28;20241;-65
2021/07/14 04:15:19;;;;;;;1.43;1.10;;;;;;;22.73;100.00;96982.06;4982585;28;20234;-63
2021/07/14 04:17:46;;;;;;;1.10;1.10;;;;;;;22.70;100.00;96988.00;4982778;28;20198;-65
2021/07/14 04:20:13;;;;;;;1.00;1.00;;;;;;;22.74;100.00;96994.88;4978449;28;20310;-65
2021/07/14 04:22:39;;;;;;;1.37;1.27;;;;;;;22.63;100.00;96978.50;4981675;28;20237;-65
2021/07/14 04:25:07;;;;;;;1.00;1.00;;;;;;;22.74;100.00;96994.06;4983077;28;20254;-65
2021/07/14 04:27:34;;;;;;;1.03;1.00;;;;;;;22.65;100.00;96983.66;4982326;28;20677;-66
2021/07/14 04:30:00;;;;;;;1.10;1.00;;;;;;;22.74;100.00;96992.34;4982626;28;20230;-65
2021/07/14 04:32:27;;;;;;;2.73;1.10;;;;;;;22.75;100.00;96995.75;4981732;28;20203;-63
2021/07/14 04:34:54;;;;;;;1.00;1.00;;;;;;;22.64;100.00;96980.22;4979116;28;20257;-65
2021/07/14 04:37:20;;;;;;;1.23;1.10;;;;;;;22.75;100.00;96994.06;4983588;28;20243;-65
2021/07/14 04:39:47;;;;;;;1.00;1.00;;;;;;;22.77;100.00;96991.53;4977583;28;20313;-62
2021/07/14 04:42:13;;;;;;;1.10;1.10;;;;;;;22.75;100.00;96993.22;4981878;28;20630;-65
2021/07/14 04:44:51;;;;;;;1.10;1.10;;;;;;;22.23;100.00;96906.09;4978978;28;20844;-65
2021/07/14 04:47:18;;;;;;;1.00;1.00;;;;;;;21.84;100.00;96838.91;4982321;28;20264;-64
2021/07/14 04:49:45;;;;;;;2.40;1.00;;;;;;;22.77;100.00;96992.38;4976040;28;20322;-64
2021/07/14 04:52:12;;;;;;;1.17;1.00;;;;;;;22.77;100.00;96996.66;4982134;28;20214;-65
2021/07/14 04:54:39;;;;;;;1.00;1.00;;;;;;;22.76;100.00;96989.78;4983741;28;20253;-64
2021/07/14 04:57:06;;;;;;;1.17;1.07;;;;;;;22.76;100.00;96993.22;4979539;28;20239;-65
2021/07/14 04:59:35;;;;;;;2.20;1.27;;;;;;;22.75;100.00;96982.97;4981754;28;20302;-65
2021/07/14 05:02:05;;;;;;;1.57;1.10;;;;;;;22.74;100.00;96981.25;4978754;28;20291;-65
2021/07/14 05:04:32;;;;;;;1.00;1.00;;;;;;;22.63;100.00;96954.59;4979369;28;20257;-64
2021/07/14 05:06:59;;;;;;;1.83;1.00;;;;;;;22.73;100.00;96972.69;4976659;28;20250;-65
2021/07/14 05:09:25;;;;;;;0.97;0.90;;;;;;;21.59;100.00;96800.06;4977678;28;20310;-65
2021/07/14 05:11:55;;;;;;;1.10;1.10;;;;;;;22.72;100.00;96977.78;4983290;28;20627;-65
2021/07/14 05:14:22;;;;;;;1.93;1.30;;;;;;;22.72;100.00;96988.03;4979641;28;20246;-64
2021/07/14 05:16:49;;;;;;;2.10;1.30;;;;;;;22.65;100.00;96975.97;4975869;28;20351;-64
2021/07/14 05:19:17;;;;;;;1.20;1.10;;;;;;;22.61;100.00;96959.69;4972036;28;20211;-65
2021/07/14 05:21:43;;;;;;;5.90;1.30;;;;;;;22.71;100.00;96974.34;4968546;28;20207;-66
2021/07/14 05:24:10;;;;;;;1.40;1.30;;;;;;;22.72;100.00;96977.78;4982432;28;20701;-65
2021/07/14 05:26:37;;;;;;;2.60;1.20;;;;;;;22.51;100.00;96934.78;4974905;28;20317;-61
2021/07/14 05:29:04;;;;;;;1.20;1.10;;;;;;;22.72;100.00;96976.09;4978487;28;20263;-66
2021/07/14 05:31:31;;;;;;;1.37;1.30;;;;;;;22.72;100.00;96975.22;4973982;28;20424;-65
2021/07/14 05:33:57;;;;;;;1.47;1.37;;;;;;;22.73;100.00;96966.69;4980893;28;20207;-65
2021/07/14 05:36:24;;;;;;;1.37;1.30;;;;;;;22.72;100.00;96973.53;4982335;28;20211;-65
2021/07/14 05:38:50;;;;;;;2.10;1.30;;;;;;;22.68;100.00;96970.91;4981234;28;20247;-66
2021/07/14 05:41:17;;;;;;;1.40;1.30;;;;;;;22.72;100.00;96960.72;4983991;28;20258;-63
2021/07/14 05:43:44;;;;;;;1.30;1.20;;;;;;;22.72;100.00;96970.97;4980390;28;20723;-65
2021/07/14 05:46:10;;;;;;;1.00;1.00;;;;;;;22.73;100.00;96971.81;4982956;28;20305;-65
2021/07/14 05:48:38;;;;;;;1.20;1.10;;;;;;;22.74;100.00;96978.69;4979424;28;20727;-65
2021/07/14 05:51:05;;;;;;;1.00;1.00;;;;;;;22.74;100.00;96982.09;4984080;28;20747;-64
2021/07/14 05:53:32;;;;;;;1.17;1.17;;;;;;;22.73;100.00;96993.19;4982335;28;20211;-66
2021/07/14 05:55:58;;;;;;;1.30;1.20;;;;;;;22.72;100.00;96988.03;4979689;28;20230;-65
2021/07/14 05:58:25;;;;;;;2.70;1.20;;;;;;;22.71;100.00;96986.31;4980610;28;20298;-65
2021/07/14 06:00:51;;;;;;;1.27;1.17;;;;;;;22.71;100.00;96979.47;4981545;28;20246;-63
2021/07/14 06:03:18;;;;;;;1.17;1.10;;;;;;;22.69;100.00;96967.50;4986529;28;20199;-64
2021/07/14 06:05:44;;;;;;;1.47;1.37;;;;;;;22.67;100.00;96958.91;4979084;28;20295;-66
2021/07/14 06:08:11;;;;;;;1.00;1.00;;;;;;;22.70;100.00;96966.63;4974369;28;20293;-65
2021/07/14 06:10:37;;;;;;;1.20;1.10;;;;;;;22.68;100.00;96958.09;4979465;28;20371;-62
2021/07/14 06:13:09;;;;;;;1.20;1.10;;;;;;;22.69;100.00;96954.69;4983474;28;20853;-65
2021/07/14 06:15:35;;;;;;;2.87;1.20;;;;;;;22.70;100.00;96943.59;4973746;28;20214;-66
2021/07/14 06:18:02;;;;;;;1.33;1.23;;;;;;;22.68;100.00;96935.88;4985381;28;20227;-64
2021/07/14 06:20:29;;;;;;;2.80;2.37;;;;;;;22.70;100.00;96947.03;4981985;28;20732;-64
2021/07/14 06:22:55;;;;;;;9.63;4.43;;;;;;;22.70;100.00;96944.47;4983550;28;20314;-66
2021/07/14 06:25:22;;;;;;;5.43;4.07;;;;;;;22.70;100.00;96949.59;4985123;28;20702;-62
2021/07/14 06:27:48;;;;;;;9.23;3.63;;;;;;;22.70;100.00;96944.47;4970255;28;20206;-65
2021/07/14 06:30:15;;;;;;;6.13;3.83;;;;;;;22.61;100.00;96933.19;4985292;28;20646;-65
2021/07/14 06:32:42;;;;;;;6.30;3.40;;;;;;;22.64;100.00;96951.19;4980792;28;20624;-65
2021/07/14 06:35:10;;;;;;;4.63;3.30;;;;;;;22.67;100.00;96956.34;4968288;28;20207;-65
2021/07/14 06:37:38;;;;;;;3.97;3.67;;;;;;;22.71;100.00;96963.25;4980611;28;20265;-61
2021/07/14 06:40:06;;;;;;;3.80;3.13;;;;;;;22.55;100.00;96933.09;4979153;28;20226;-65
2021/07/14 06:42:33;;;;;;;3.53;3.23;;;;;;;22.66;100.00;96963.19;4983274;28;20203;-66
2021/07/14 06:44:59;;;;;;;10.93;3.50;;;;;;;22.66;100.00;96983.69;4980205;28;20222;-64
2021/07/14 06:47:26;;;;;;;3.57;3.27;;;;;;;22.66;100.00;96988.81;4982547;28;20261;-65
2021/07/14 06:49:53;;;;;;;7.47;3.10;;;;;;;22.64;100.00;97000.72;4985939;28;20306;-65
2021/07/14 06:52:19;;;;;;;3.80;3.07;;;;;;;22.64;100.00;96992.16;4989607;28;20221;-66
2021/07/14 06:54:46;;;;;;;3.27;2.97;;;;;;;22.64;100.00;96995.59;4989357;28;20295;-65
2021/07/14 06:57:12;;;;;;;9.13;3.97;;;;;;;22.47;100.00;96966.22;4985322;28;20291;-68
2021/07/14 06:59:39;;;;;;;6.13;4.40;;;;;;;22.63;100.00;97000.69;4967675;28;20261;-68
2021/07/14 07:02:06;;;;;;;4.77;3.60;;;;;;;22.64;100.00;97007.53;4983534;28;20748;-71
2021/07/14 07:04:32;;;;;;;5.70;3.47;;;;;;;22.57;100.00;97003.16;4986311;28;21002;-68
2021/07/14 07:06:59;;;;;;;5.80;3.10;;;;;;;22.57;100.00;97003.16;4969358;28;20245;-69
2021/07/14 07:09:26;;;;;;;5.80;4.00;;;;;;;22.64;100.00;97013.53;4969260;28;20309;-68
2021/07/14 07:11:53;;;;;;;5.97;3.10;;;;;;;22.63;100.00;97009.25;4957717;28;20273;-70
2021/07/14 07:14:20;;;;;;;8.63;3.63;;;;;;;22.64;100.00;97005.84;4980487;28;20206;-67
2021/07/14 07:16:46;;;;;;;4.50;3.30;;;;;;;22.53;100.00;96989.41;4982577;28;20399;-69
2021/07/14 07:19:14;;;;;;;4.57;3.37;;;;;;;22.55;100.00;96995.44;4979117;28;20208;-69
2021/07/14 07:21:41;;;;;;;4.07;3.00;;;;;;;22.56;100.00;96997.16;4982433;28;20223;-71
2021/07/14 07:24:07;;;;;;;5.17;3.13;;;;;;;22.55;100.00;96998.00;4981305;28;20672;-67
2021/07/14 07:26:34;;;;;;;3.30;3.00;;;;;;;22.41;100.00;96981.50;4981071;28;20235;-68
2021/07/14 07:29:09;;;;;;;2.80;2.60;;;;;;;22.55;100.00;97005.69;4981920;28;20202;-69
2021/07/14 07:31:36;;;;;;;3.00;2.80;;;;;;;22.50;100.00;97002.16;4974647;28;20204;-70
2021/07/14 07:34:03;;;;;;;4.23;2.90;;;;;;;22.62;100.00;97025.44;4985620;28;20253;-71
2021/07/14 07:36:30;;;;;;;4.13;2.90;;;;;;;22.61;100.00;97021.16;4984151;28;20653;-70
2021/07/14 07:38:57;;;;;;;3.57;2.73;;;;;;;22.61;100.00;97016.03;4979858;28;20207;-65
2021/07/14 07:41:24;;;;;;;3.00;2.67;;;;;;;22.60;100.00;97022.00;4981369;28;20643;-67
2021/07/14 07:43:51;;;;;;;3.57;2.97;;;;;;;22.59;100.00;97017.69;4980859;28;20692;-71
2021/07/14 07:46:18;;;;;;;5.67;2.73;;;;;;;22.60;100.00;97018.56;4983672;28;20238;-67
2021/07/14 07:48:45;;;;;;;2.60;2.40;;;;;;;22.55;100.00;97015.94;4978144;28;20207;-70
2021/07/14 07:51:11;;;;;;;3.13;2.63;;;;;;;22.56;100.00;97025.31;4984412;28;20262;-66
2021/07/14 07:53:38;;;;;;;2.83;2.53;;;;;;;22.47;100.00;97007.19;4978574;28;20286;-65
2021/07/14 07:56:05;;;;;;;4.43;2.43;;;;;;;22.60;100.00;97039.06;4981121;28;20242;-67
2021/07/14 07:58:32;;;;;;;2.93;2.40;;;;;;;22.60;100.00;97027.13;4980740;28;20239;-66
2021/07/14 08:00:59;;;;;;;2.83;2.43;;;;;;;22.61;100.00;97025.41;4981135;28;20219;-67
2021/07/14 08:03:26;;;;;;;3.80;2.70;;;;;;;22.56;100.00;97020.19;4982230;28;20675;-64
2021/07/14 08:05:53;;;;;;;5.03;2.17;;;;;;;22.52;100.00;97018.44;4968588;28;20601;-66
2021/07/14 08:08:19;;;;;;;2.57;2.37;;;;;;;22.57;100.00;97021.06;4987208;28;20238;-67
2021/07/14 08:10:46;;;;;;;2.70;2.50;;;;;;;22.58;100.00;97028.78;4978886;28;20226;-64
2021/07/14 08:13:13;;;;;;;3.03;2.73;;;;;;;22.52;100.00;97017.56;4978231;28;20239;-67
2021/07/14 08:15:39;;;;;;;2.43;2.23;;;;;;;22.58;100.00;97033.03;4981134;28;20207;-67
2021/07/14 08:18:06;;;;;;;2.27;2.10;;;;;;;22.53;100.00;97027.00;4978176;28;20293;-67
2021/07/14 08:20:33;;;;;;;3.17;2.20;;;;;;;22.60;100.00;97039.06;4962718;28;20271;-67
2021/07/14 08:23:00;;;;;;;2.50;2.30;;;;;;;22.59;100.00;97043.31;4977028;28;20689;-67
2021/07/14 08:25:26;;;;;;;2.60;2.40;;;;;;;22.56;100.00;97033.00;4981136;28;20206;-66
2021/07/14 08:27:53;;;;;;;2.23;2.07;;;;;;;22.59;100.00;97040.75;4979623;28;20291;-67
2021/07/14 08:30:19;;;;;;;2.70;2.50;;;;;;;22.60;100.00;97046.75;4981097;28;20314;-66
2021/07/14 08:32:46;;;;;;;2.73;2.33;;;;;;;22.59;100.00;97045.88;4979331;28;20662;-64
2021/07/14 08:35:14;;;;;;;2.83;2.03;;;;;;;22.58;100.00;97044.16;4978872;28;20222;-67
2021/07/14 08:37:44;;;;;;;2.50;2.30;;;;;;;22.58;100.00;97043.28;4978869;28;20203;-68
2021/07/14 08:40:11;;;;;;;2.40;2.20;;;;;;;22.58;100.00;97045.84;4979145;28;20629;-66
2021/07/14 08:42:39;;;;;;;2.93;2.20;;;;;;;22.58;100.00;97048.41;4980297;28;20290;-65
2021/07/14 08:45:07;;;;;;;2.10;1.97;;;;;;;22.53;100.00;97035.50;4967762;28;20210;-67
2021/07/14 08:47:33;;;;;;;2.20;2.10;;;;;;;22.57;100.00;97046.69;4979333;28;20815;-67
2021/07/14 08:50:01;;;;;;;2.00;1.80;;;;;;;22.54;100.00;97044.06;4976798;28;20230;-67
2021/07/14 08:52:28;;;;;;;2.20;1.90;;;;;;;22.58;100.00;97054.41;4983371;28;20238;-66
2021/07/14 08:54:54;;;;;;;2.13;1.97;;;;;;;22.51;100.00;97046.56;4980079;28;20619;-66
2021/07/14 08:57:21;;;;;;;4.00;1.90;;;;;;;22.58;100.00;97056.97;4973936;28;20239;-68
2021/07/14 08:59:47;;;;;;;2.07;1.97;;;;;;;22.53;100.00;97048.31;4978913;28;20345;-65
2021/07/14 09:02:14;;;;;;;2.00;1.90;;;;;;;22.59;100.00;97053.56;4971367;28;20293;-67
2021/07/14 09:04:41;;;;;;;1.83;1.73;;;;;;;22.44;100.00;97032.75;4979771;28;20207;-68
2021/07/14 09:07:08;;;;;;;1.87;1.77;;;;;;;22.51;100.00;97047.44;4978586;28;20239;-67
2021/07/14 09:09:37;;;;;;;1.73;1.63;;;;;;;22.59;100.00;97057.84;4983058;28;20319;-67
2021/07/14 09:12:10;;;;;;;2.00;1.80;;;;;;;22.59;100.00;97057.84;4979930;28;20302;-66
2021/07/14 09:14:39;;;;;;;1.70;1.60;;;;;;;22.27;100.00;97011.13;4977894;28;20664;-65
2021/07/14 09:17:22;;;;;;;1.93;1.83;;;;;;;22.58;100.00;97063.75;4965311;28;20553;-68
2021/07/14 09:19:51;;;;;;;1.80;1.60;;;;;;;22.57;100.00;97059.50;4977279;28;20245;-68
2021/07/14 09:22:27;;;;;;;3.30;1.80;;;;;;;22.26;100.00;97004.25;4976312;28;20245;-66
2021/07/14 09:24:57;;;;;;;1.70;1.60;;;;;;;22.55;100.00;97048.34;4978466;28;20231;-67
2021/07/14 09:27:36;;;;;;;1.90;1.80;;;;;;;22.54;100.00;97044.06;4977726;28;20241;-67
2021/07/14 09:30:02;;;;;;;1.70;1.60;;;;;;;22.53;100.00;97047.47;4961812;28;20226;-67
2021/07/14 09:32:44;;;;;;;1.87;1.77;;;;;;;22.45;100.00;97054.13;4978310;28;20318;-67
2021/07/14 09:35:11;;;;;;;1.70;1.60;;;;;;;22.52;100.00;97064.53;4981919;28;20234;-66
2021/07/14 09:37:38;;;;;;;2.00;1.90;;;;;;;22.43;100.00;97041.28;4980431;28;20278;-65
2021/07/14 09:40:15;;;;;;;2.13;1.57;;;;;;;22.52;100.00;97053.41;4970962;28;20215;-67
2021/07/14 09:43:06;;;;;;;2.13;1.80;;;;;;;22.52;100.00;97053.41;4973659;28;20280;-67
2021/07/14 09:45:48;;;;;;;1.83;1.60;;;;;;;22.06;100.00;96980.03;4977242;28;20230;-67
2021/07/14 09:48:26;;;;;;;1.77;1.67;;;;;;;22.51;100.00;97056.81;4978263;28;20656;-68
2021/07/14 09:51:12;;;;;;;2.30;1.57;;;;;;;22.17;100.00;96998.13;4977334;28;20321;-67
2021/07/14 09:53:43;;;;;;;3.37;1.90;;;;;;;22.50;100.00;97058.50;4977353;28;20298;-66
2021/07/14 09:56:16;;;;;;;2.70;1.90;;;;;;;22.50;100.00;97060.19;4976774;28;20503;-64
2021/07/14 09:58:42;;;;;;;2.47;1.80;;;;;;;22.34;100.00;97030.88;4977934;28;20262;-67
2021/07/14 10:01:16;;;;;;;1.70;1.60;;;;;;;22.42;100.00;97046.38;4968320;28;20260;-66
2021/07/14 10:03:49;;;;;;;1.70;1.60;;;;;;;22.21;100.00;97017.81;4976965;28;20211;-67
2021/07/14 10:06:17;;;;;;;1.70;1.60;;;;;;;22.50;100.00;97065.31;4974275;28;20348;-67
2021/07/14 10:08:47;;;;;;;1.83;1.60;;;;;;;22.23;100.00;97026.41;4977275;28;20213;-67
2021/07/14 10:11:19;;;;;;;1.50;1.40;;;;;;;22.48;100.00;97069.53;4983596;28;20312;-67
2021/07/14 10:13:57;;;;;;;2.03;1.90;;;;;;;22.45;100.00;97078.03;4979466;28;20211;-67
2021/07/14 10:16:34;;;;;;;2.50;1.67;;;;;;;22.46;100.00;97069.50;4978620;28;20203;-65
2021/07/14 10:19:11;;;;;;;1.70;1.60;;;;;;;22.47;100.00;97072.94;4970868;28;20210;-68
2021/07/14 10:21:44;;;;;;;2.00;1.80;;;;;;;22.39;100.00;97062.56;4978026;28;20245;-64
2021/07/14 10:24:13;;;;;;;1.67;1.57;;;;;;;22.34;100.00;97059.03;4958986;28;20203;-67
2021/07/14 10:26:41;;;;;;;1.50;1.40;;;;;;;22.34;100.00;97055.59;4973857;28;20229;-67
2021/07/14 10:29:08;;;;;;;1.67;1.57;;;;;;;22.46;100.00;97078.88;4968042;28;20208;-67
2021/07/14 10:31:35;;;;;;;1.67;1.57;;;;;;;22.41;100.00;97072.81;4978830;28;20263;-67
2021/07/14 10:34:03;;;;;;;1.70;1.60;;;;;;;22.42;100.00;97062.63;4977742;28;20294;-67
2021/07/14 10:36:32;;;;;;;2.37;1.60;;;;;;;22.47;100.00;97070.38;4978394;28;20230;-67
2021/07/14 10:39:01;;;;;;;1.60;1.50;;;;;;;22.47;100.00;97072.94;4978204;28;20217;-67
2021/07/14 10:41:28;;;;;;;2.67;1.97;;;;;;;22.45;100.00;97067.78;4976024;28;20246;-66
2021/07/14 10:43:56;;;;;;;1.60;1.50;;;;;;;22.44;100.00;97066.03;4971736;28;20290;-66
2021/07/14 10:46:25;;;;;;;1.83;1.30;;;;;;;22.31;100.00;97040.19;4967399;28;20215;-67
2021/07/14 10:48:52;;;;;;;1.63;1.53;;;;;;;22.47;100.00;97060.97;4969487;28;20235;-67
2021/07/14 10:51:29;;;;;;;2.13;1.70;;;;;;;22.36;100.00;97044.59;4977533;28;20907;-67
2021/07/14 10:53:58;;;;;;;1.87;1.50;;;;;;;22.34;100.00;97037.69;4960702;28;20303;-67
2021/07/14 10:56:26;;;;;;;2.03;1.90;;;;;;;22.23;100.00;97019.56;4975752;28;20207;-67
2021/07/14 10:58:53;;;;;;;2.03;1.80;;;;;;;22.15;100.00;97002.34;4973707;28;20237;-66
2021/07/14 11:01:39;;;;;;;2.07;1.87;;;;;;;22.48;100.00;97065.28;4950114;28;20223;-65
2021/07/14 11:04:13;;;;;;;2.47;1.90;;;;;;;22.48;100.00;97057.59;4978302;28;20317;-67
2021/07/14 11:07:12;;;;;;;2.50;1.90;;;;;;;22.45;100.00;97049.00;4980652;28;20208;-67
2021/07/14 11:09:43;;;;;;;5.03;1.87;;;;;;;22.39;100.00;97043.75;4974431;28;20254;-66
2021/07/14 11:12:14;;;;;;;3.67;2.03;;;;;;;22.47;100.00;97062.69;4972166;28;20234;-67
2021/07/14 11:14:41;;;;;;;2.67;2.10;;;;;;;22.47;100.00;97063.53;4983541;28;20203;-67
2021/07/14 11:17:09;;;;;;;2.63;2.30;;;;;;;22.47;100.00;97062.69;4979350;28;20239;-66
2021/07/14 11:19:43;;;;;;;3.57;2.33;;;;;;;22.45;100.00;97055.00;4978972;28;20714;-67
2021/07/14 11:22:10;;;;;;;6.03;2.47;;;;;;;22.46;100.00;97059.25;4982566;28;20317;-67
2021/07/14 11:24:41;;;;;;;3.03;2.17;;;;;;;22.47;100.00;97057.56;4982355;28;20235;-64
2021/07/14 11:27:26;;;;;;;3.90;1.93;;;;;;;22.47;100.00;97055.84;4980174;28;20214;-66
2021/07/14 11:29:56;;;;;;;2.53;1.73;;;;;;;22.47;100.00;97073.78;4983363;28;20261;-68
2021/07/14 11:32:35;;;;;;;3.10;2.03;;;;;;;22.47;100.00;97049.91;4980172;28;20595;-68
2021/07/14 11:35:16;;;;;;;4.23;2.37;;;;;;;22.46;100.00;97051.59;4984089;28;20285;-68
2021/07/14 11:37:51;;;;;;;3.33;2.40;;;;;;;22.38;100.00;97035.22;4972470;28;20290;-67
2021/07/14 11:40:17;;;;;;;3.70;2.37;;;;;;;22.47;100.00;97048.19;4969135;28;20647;-66